Time;durP1;ratioP1;P1;durP2;ratioP2;P2;SDS_P1;SDS_P2;PMS_P1;PMS_P2;Temp;Humidity;BMP_temperature;BMP_pressure;BME280_temperature;BME280_humidity;BME280_pressure;Samples;Min_cycle;Max_cycle;Signal;HPM_P1;HPM_P2
2022/11/15 00:01:28;;;;;;;13.40;10.43;;;6.00;99.90;;;;;;5053353;28;20389;-75
2022/11/15 00:03:55;;;;;;;12.07;10.23;;;6.00;99.90;;;;;;5053551;28;20198;-75
2022/11/15 00:06:21;;;;;;;14.77;10.53;;;6.00;99.90;;;;;;5053014;28;20201;-75
2022/11/15 00:08:48;;;;;;;13.93;10.43;;;6.10;99.90;;;;;;5053417;28;20197;-75
2022/11/15 00:11:14;;;;;;;12.07;10.37;;;6.10;99.90;;;;;;5053291;28;20243;-75
2022/11/15 00:13:41;;;;;;;13.73;10.57;;;6.20;99.90;;;;;;5053211;28;20206;-75
2022/11/15 00:16:10;;;;;;;17.70;10.93;;;6.10;99.90;;;;;;5053055;28;20682;-75
2022/11/15 00:18:36;;;;;;;12.47;11.17;;;6.20;99.90;;;;;;5053012;28;20198;-75
2022/11/15 00:21:06;;;;;;;12.23;10.43;;;6.20;99.90;;;;;;5053304;28;20261;-75
2022/11/15 00:23:33;;;;;;;14.23;10.83;;;6.20;99.90;;;;;;5053141;28;20201;-75
2022/11/15 00:26:00;;;;;;;12.27;10.30;;;6.20;99.90;;;;;;5053103;28;20198;-75
2022/11/15 00:28:27;;;;;;;13.50;10.17;;;6.20;99.90;;;;;;5053224;28;20198;-75
2022/11/15 00:30:54;;;;;;;15.70;10.53;;;6.20;99.90;;;;;;5052896;28;20247;-75
2022/11/15 00:33:22;;;;;;;13.27;10.57;;;6.20;99.90;;;;;;5052773;28;20205;-75
2022/11/15 00:35:48;;;;;;;13.00;10.23;;;6.20;99.90;;;;;;5052358;28;20252;-75
2022/11/15 00:38:15;;;;;;;12.07;10.07;;;6.20;99.90;;;;;;5052758;28;20229;-75
2022/11/15 00:40:42;;;;;;;10.47;8.97;;;6.20;99.90;;;;;;5052978;28;20201;-75
2022/11/15 00:43:09;;;;;;;12.40;9.00;;;6.20;99.90;;;;;;5052857;28;20248;-74
2022/11/15 00:45:35;;;;;;;13.93;8.97;;;6.20;99.90;;;;;;5052926;28;20232;-75
2022/11/15 00:48:02;;;;;;;12.20;9.17;;;6.20;99.90;;;;;;5052715;28;20197;-75
2022/11/15 00:50:30;;;;;;;11.07;9.10;;;6.10;99.90;;;;;;5052904;28;20625;-75
2022/11/15 00:52:57;;;;;;;12.70;10.57;;;6.10;99.90;;;;;;5052874;28;20253;-75
2022/11/15 00:55:23;;;;;;;10.93;9.10;;;6.10;99.90;;;;;;5052626;28;20596;-75
2022/11/15 00:57:50;;;;;;;12.37;8.93;;;6.10;99.90;;;;;;5052638;28;20281;-75
2022/11/15 01:00:17;;;;;;;11.70;8.87;;;6.10;99.90;;;;;;5052608;28;20197;-74
2022/11/15 01:02:44;;;;;;;12.93;9.00;;;6.10;99.90;;;;;;5052745;28;20267;-74
2022/11/15 01:05:10;;;;;;;9.80;8.77;;;6.20;99.90;;;;;;5052744;28;20194;-74
2022/11/15 01:07:38;;;;;;;9.37;8.30;;;6.20;99.90;;;;;;5052469;28;20275;-75
2022/11/15 01:10:06;;;;;;;11.83;8.60;;;6.30;99.90;;;;;;5052455;28;20649;-74
2022/11/15 01:12:33;;;;;;;10.37;7.53;;;6.20;99.90;;;;;;5052504;28;20248;-75
2022/11/15 01:14:59;;;;;;;11.43;8.10;;;6.20;99.90;;;;;;5052441;28;20209;-74
2022/11/15 01:17:26;;;;;;;12.43;7.93;;;6.20;99.90;;;;;;5052296;28;20696;-74
2022/11/15 01:19:53;;;;;;;9.63;7.47;;;6.10;99.90;;;;;;5052417;28;20633;-75
2022/11/15 01:22:19;;;;;;;10.90;7.90;;;6.00;99.90;;;;;;5052287;28;20657;-74
2022/11/15 01:24:47;;;;;;;10.50;8.33;;;5.90;99.90;;;;;;5052422;28;20243;-75
2022/11/15 01:27:14;;;;;;;12.57;8.60;;;5.80;99.90;;;;;;5052305;28;20248;-74
2022/11/15 01:29:41;;;;;;;10.10;8.43;;;5.80;99.90;;;;;;5052340;28;20197;-73
2022/11/15 01:32:07;;;;;;;10.10;8.23;;;5.80;99.90;;;;;;5052456;28;20606;-74
2022/11/15 01:34:34;;;;;;;9.27;8.07;;;5.70;99.90;;;;;;5052437;28;20229;-74
2022/11/15 01:37:01;;;;;;;9.63;8.10;;;5.70;99.90;;;;;;5052259;28;20278;-74
2022/11/15 01:39:28;;;;;;;11.20;8.53;;;5.70;99.90;;;;;;5052410;28;20197;-74
2022/11/15 01:41:56;;;;;;;11.93;8.33;;;5.80;99.90;;;;;;5052142;28;20201;-74
2022/11/15 01:44:54;;;;;;;13.33;9.33;;;5.70;99.90;;;;;;5052353;28;20232;-74
2022/11/15 01:47:24;;;;;;;11.97;9.47;;;5.80;99.90;;;;;;4972102;28;20206;-74
2022/11/15 01:49:57;;;;;;;10.97;7.80;;;5.80;99.90;;;;;;5039848;28;20228;-74
2022/11/15 01:52:27;;;;;;;11.40;8.37;;;5.80;99.90;;;;;;5055856;28;20251;-74
2022/11/15 01:54:57;;;;;;;10.60;9.13;;;5.80;99.90;;;;;;5055644;28;20208;-74
2022/11/15 01:57:25;;;;;;;11.57;9.33;;;5.80;99.90;;;;;;5055990;28;20580;-74
2022/11/15 01:59:52;;;;;;;10.97;9.17;;;5.80;99.90;;;;;;5055740;28;20319;-74
2022/11/15 02:02:18;;;;;;;11.60;9.40;;;5.80;99.90;;;;;;5055734;28;20240;-74
2022/11/15 02:04:47;;;;;;;10.17;9.03;;;5.80;99.90;;;;;;5055627;28;20263;-74
2022/11/15 02:07:17;;;;;;;11.07;8.23;;;5.70;99.90;;;;;;5055748;28;20234;-73
2022/11/15 02:09:45;;;;;;;9.60;8.60;;;5.70;99.90;;;;;;5055779;28;20202;-74
2022/11/15 02:12:15;;;;;;;10.07;8.57;;;5.70;99.90;;;;;;5055357;28;20676;-74
2022/11/15 02:14:47;;;;;;;11.07;9.43;;;5.70;99.90;;;;;;5055387;28;20268;-73
2022/11/15 02:17:30;;;;;;;9.17;7.57;;;5.60;99.90;;;;;;5055310;28;20222;-74
2022/11/15 02:20:28;;;;;;;10.57;8.67;;;5.60;99.90;;;;;;5055529;28;20198;-74
2022/11/15 02:23:14;;;;;;;11.67;8.57;;;5.50;99.90;;;;;;5055238;28;20207;-74
2022/11/15 02:25:57;;;;;;;10.60;8.40;;;5.60;99.90;;;;;;5055168;28;20546;-75
2022/11/15 02:28:45;;;;;;;9.97;7.57;;;5.50;99.90;;;;;;5055298;28;20206;-75
2022/11/15 02:31:18;;;;;;;13.00;8.40;;;5.50;99.90;;;;;;5055084;28;20204;-74
2022/11/15 02:33:54;;;;;;;10.23;8.10;;;5.50;99.90;;;;;;5055093;28;20202;-76
2022/11/15 02:36:30;;;;;;;15.27;9.57;;;5.40;99.90;;;;;;5054941;28;20205;-76
2022/11/15 02:39:03;;;;;;;13.67;10.10;;;5.40;99.90;;;;;;5055124;28;20296;-75
2022/11/15 02:41:40;;;;;;;18.63;11.37;;;5.50;99.90;;;;;;5055154;28;20209;-75
2022/11/15 02:44:12;;;;;;;18.63;11.30;;;5.40;99.90;;;;;;5054936;28;20267;-75
2022/11/15 02:49:34;;;;;;;16.13;9.90;;;5.30;99.90;;;;;;5054812;28;20197;-75
2022/11/15 02:52:00;;;;;;;14.87;9.23;;;5.40;99.90;;;;;;5054758;28;20208;-75
2022/11/15 02:54:30;;;;;;;13.93;10.23;;;5.30;99.90;;;;;;5054595;28;20201;-75
2022/11/15 02:57:00;;;;;;;12.37;9.00;;;5.30;99.90;;;;;;5054423;28;20275;-75
2022/11/15 02:59:45;;;;;;;13.80;9.77;;;5.30;99.90;;;;;;5053886;28;20243;-75
2022/11/15 03:02:24;;;;;;;13.97;8.67;;;5.30;99.90;;;;;;5054707;28;20607;-75
2022/11/15 03:04:56;;;;;;;12.63;9.07;;;5.30;99.90;;;;;;5054488;28;20205;-75
2022/11/15 03:07:29;;;;;;;13.60;8.43;;;5.30;99.90;;;;;;5054445;28;20280;-75
2022/11/15 03:10:01;;;;;;;11.07;8.63;;;5.30;99.90;;;;;;5054365;28;20227;-75
2022/11/15 03:12:35;;;;;;;13.33;9.33;;;5.30;99.90;;;;;;5054547;28;20236;-75
2022/11/15 03:15:07;;;;;;;17.57;9.47;;;5.30;99.90;;;;;;5054371;28;20205;-75
2022/11/15 03:17:39;;;;;;;18.73;10.53;;;5.30;99.90;;;;;;5054231;28;20229;-75
2022/11/15 03:20:08;;;;;;;23.80;12.70;;;5.20;99.90;;;;;;5054133;28;20252;-74
2022/11/15 03:22:39;;;;;;;16.37;11.33;;;5.10;99.90;;;;;;5054234;28;20198;-75
2022/11/15 03:25:09;;;;;;;20.00;11.73;;;5.00;99.90;;;;;;5054261;28;20208;-74
2022/11/15 03:27:39;;;;;;;16.47;10.97;;;5.00;99.90;;;;;;5054195;28;20198;-74
2022/11/15 03:30:09;;;;;;;20.87;11.87;;;4.90;99.90;;;;;;5054071;28;20248;-74
2022/11/15 03:32:43;;;;;;;20.87;12.30;;;4.80;99.90;;;;;;5054084;28;20260;-75
2022/11/15 03:35:13;;;;;;;46.20;28.57;;;4.70;99.90;;;;;;5053902;28;20267;-74
2022/11/15 03:37:58;;;;;;;21.03;14.97;;;4.60;99.90;;;;;;5053908;28;20224;-74
2022/11/15 03:40:31;;;;;;;14.97;10.83;;;4.60;99.90;;;;;;5053942;28;20243;-74
2022/11/15 03:43:03;;;;;;;15.43;11.17;;;4.60;99.90;;;;;;5053756;28;20208;-74
2022/11/15 03:45:35;;;;;;;17.27;11.20;;;4.50;99.90;;;;;;5053936;28;20212;-74
2022/11/15 03:48:11;;;;;;;22.53;15.50;;;4.50;99.90;;;;;;5053896;28;20243;-74
2022/11/15 03:50:38;;;;;;;22.63;14.13;;;4.60;99.90;;;;;;5054043;28;20205;-74
2022/11/15 03:53:04;;;;;;;22.10;14.37;;;4.70;99.90;;;;;;5053645;28;20194;-74
2022/11/15 03:55:33;;;;;;;20.33;13.57;;;4.80;99.90;;;;;;5053443;28;20205;-75
2022/11/15 03:58:01;;;;;;;18.90;13.20;;;4.80;99.90;;;;;;5053283;28;20511;-74
2022/11/15 04:00:29;;;;;;;16.87;12.27;;;4.90;99.90;;;;;;5053669;28;20246;-75
2022/11/15 04:02:56;;;;;;;12.43;10.47;;;4.90;99.90;;;;;;5053376;28;20661;-74
2022/11/15 04:05:24;;;;;;;15.23;10.80;;;4.90;99.90;;;;;;5053309;28;20267;-74
2022/11/15 04:07:50;;;;;;;16.37;11.07;;;4.90;99.90;;;;;;5053039;28;20228;-74
2022/11/15 04:10:17;;;;;;;14.57;10.80;;;4.90;99.90;;;;;;5053360;28;20197;-75
2022/11/15 04:12:47;;;;;;;17.87;11.50;;;5.00;99.90;;;;;;5053159;28;20201;-74
2022/11/15 04:15:16;;;;;;;16.97;10.97;;;5.00;99.90;;;;;;5053300;28;20292;-73
2022/11/15 04:17:45;;;;;;;16.33;11.37;;;5.10;99.90;;;;;;5053012;28;20279;-75
2022/11/15 04:25:45;;;;;;;25.87;14.30;;;5.10;99.90;;;;;;5053042;28;20275;-75
2022/11/15 04:28:12;;;;;;;20.00;11.97;;;5.10;99.90;;;;;;5053062;28;20244;-75
2022/11/15 04:30:39;;;;;;;14.97;11.27;;;5.10;99.90;;;;;;5052852;28;20194;-74
2022/11/15 04:33:06;;;;;;;20.27;12.13;;;5.00;99.90;;;;;;5052732;28;20204;-75
2022/11/15 04:35:33;;;;;;;15.33;11.27;;;4.90;99.90;;;;;;5052959;28;20232;-74
2022/11/15 04:38:01;;;;;;;16.60;11.30;;;4.80;99.90;;;;;;5052665;28;20708;-74
2022/11/15 04:40:28;;;;;;;15.50;11.07;;;4.60;99.90;;;;;;5052894;28;20208;-74
2022/11/15 04:42:55;;;;;;;14.67;10.80;;;4.60;99.90;;;;;;5052885;28;20259;-74
2022/11/15 04:45:21;;;;;;;14.83;10.00;;;4.50;99.90;;;;;;5052818;28;20251;-75
2022/11/15 04:47:48;;;;;;;15.43;10.80;;;4.40;99.90;;;;;;5053101;28;20611;-74
2022/11/15 04:50:16;;;;;;;18.30;11.37;;;4.30;99.90;;;;;;5052958;28;20250;-74
2022/11/15 04:52:43;;;;;;;17.17;11.50;;;4.20;99.90;;;;;;5053177;28;20205;-74
2022/11/15 04:55:11;;;;;;;15.27;11.37;;;4.10;99.90;;;;;;5053143;28;20232;-75
2022/11/15 04:57:39;;;;;;;14.87;11.97;;;4.20;99.90;;;;;;5052875;28;20271;-74
2022/11/15 05:00:08;;;;;;;17.40;12.00;;;4.10;99.90;;;;;;5052904;28;20208;-75
2022/11/15 05:05:19;;;;;;;16.03;12.10;;;4.10;99.90;;;;;;5053227;28;20200;-74
2022/11/15 05:07:46;;;;;;;19.10;12.43;;;3.90;99.90;;;;;;5053324;28;20237;-74
2022/11/15 05:10:14;;;;;;;16.93;11.40;;;4.00;99.90;;;;;;5052849;28;20232;-74
2022/11/15 05:12:41;;;;;;;17.47;12.83;;;3.90;99.90;;;;;;5053027;28;20200;-75
2022/11/15 05:15:08;;;;;;;14.73;11.77;;;3.90;99.90;;;;;;5053059;28;20203;-76
2022/11/15 05:17:36;;;;;;;18.00;12.97;;;3.90;99.90;;;;;;5052793;28;20199;-74
2022/11/15 05:20:03;;;;;;;17.43;12.33;;;3.90;99.90;;;;;;5053297;28;20275;-74
2022/11/15 05:22:29;;;;;;;18.50;13.17;;;3.90;99.90;;;;;;5053920;28;20203;-75
2022/11/15 05:24:56;;;;;;;16.97;13.10;;;3.90;99.90;;;;;;5057304;28;20198;-75
2022/11/15 05:27:24;;;;;;;20.73;14.20;;;3.90;99.90;;;;;;5057317;28;20552;-74
2022/11/15 05:29:51;;;;;;;21.20;14.63;;;3.80;99.90;;;;;;5057283;28;20197;-74
2022/11/15 05:32:18;;;;;;;18.70;13.93;;;3.70;99.90;;;;;;5057178;28;20203;-74
2022/11/15 05:34:46;;;;;;;17.07;13.90;;;3.70;99.90;;;;;;5057189;28;20197;-74
2022/11/15 05:37:12;;;;;;;20.33;14.77;;;3.70;99.90;;;;;;5058116;28;20205;-74
2022/11/15 05:39:39;;;;;;;19.37;14.50;;;3.70;99.90;;;;;;5056296;28;20241;-74
2022/11/15 05:42:09;;;;;;;19.33;14.10;;;3.70;99.90;;;;;;5056812;28;20228;-74
2022/11/15 05:44:39;;;;;;;24.57;16.30;;;3.60;99.90;;;;;;5056622;28;20196;-74
2022/11/15 05:47:10;;;;;;;23.40;14.70;;;3.60;99.90;;;;;;5056719;28;20200;-74
2022/11/15 05:49:38;;;;;;;17.83;12.73;;;3.60;99.90;;;;;;5056366;28;20207;-74
2022/11/15 05:52:08;;;;;;;17.60;12.23;;;3.70;99.90;;;;;;5056311;28;20199;-74
2022/11/15 05:54:37;;;;;;;18.93;13.83;;;3.60;99.90;;;;;;5056865;28;20328;-74
2022/11/15 05:57:05;;;;;;;18.17;13.07;;;3.60;99.90;;;;;;5055944;28;20662;-75
2022/11/15 05:59:33;;;;;;;17.50;14.03;;;3.60;99.90;;;;;;5056075;28;20230;-74
2022/11/15 06:02:01;;;;;;;20.90;14.43;;;3.60;99.90;;;;;;5056411;28;20252;-74
2022/11/15 06:04:28;;;;;;;21.67;14.50;;;3.50;99.90;;;;;;5056201;28;20660;-74
2022/11/15 06:06:55;;;;;;;21.60;14.07;;;3.50;99.90;;;;;;5057134;28;20627;-74
2022/11/15 06:09:21;;;;;;;22.00;15.00;;;3.50;99.90;;;;;;5063085;28;20278;-74
2022/11/15 06:11:49;;;;;;;19.37;14.63;;;3.40;99.90;;;;;;5063329;28;20611;-74
2022/11/15 06:14:15;;;;;;;21.20;15.37;;;3.40;99.90;;;;;;5063188;28;20221;-74
2022/11/15 06:16:42;;;;;;;24.50;14.40;;;3.40;99.90;;;;;;5058183;28;20265;-74
2022/11/15 06:19:10;;;;;;;16.70;13.47;;;3.50;99.90;;;;;;5056309;28;20231;-74
2022/11/15 06:21:37;;;;;;;17.30;13.23;;;3.40;99.90;;;;;;5056167;28;20257;-74
2022/11/15 06:24:05;;;;;;;20.50;13.37;;;3.40;99.90;;;;;;5056451;28;20654;-74
2022/11/15 06:26:32;;;;;;;21.70;14.57;;;3.30;99.90;;;;;;5056029;28;20250;-74
2022/11/15 06:28:59;;;;;;;16.97;12.83;;;3.30;99.90;;;;;;5055800;28;20206;-74
2022/11/15 06:31:25;;;;;;;18.07;12.77;;;3.40;99.90;;;;;;5055849;28;20199;-74
2022/11/15 06:33:52;;;;;;;18.40;13.67;;;3.40;99.90;;;;;;5054399;28;20204;-74
2022/11/15 06:36:20;;;;;;;16.33;12.77;;;3.30;99.90;;;;;;5055767;28;20204;-74
2022/11/15 06:38:47;;;;;;;25.50;16.80;;;3.30;99.90;;;;;;5056103;28;20254;-74
2022/11/15 06:41:14;;;;;;;28.80;19.73;;;3.30;99.90;;;;;;5056071;28;20202;-74
2022/11/15 06:43:42;;;;;;;51.10;33.30;;;3.30;99.90;;;;;;5055727;28;20198;-75
2022/11/15 06:46:09;;;;;;;41.57;29.57;;;3.30;99.90;;;;;;5056364;28;20276;-74
2022/11/15 06:48:36;;;;;;;39.27;27.70;;;3.40;99.90;;;;;;5055993;28;20200;-75
2022/11/15 06:51:04;;;;;;;32.83;23.30;;;3.30;99.90;;;;;;5055798;28;20668;-75
2022/11/15 06:53:32;;;;;;;28.57;21.80;;;3.40;99.90;;;;;;5055608;28;20199;-75
2022/11/15 06:56:00;;;;;;;29.47;22.37;;;3.50;99.90;;;;;;5055530;28;20220;-75
2022/11/15 06:58:27;;;;;;;29.07;21.90;;;3.60;99.90;;;;;;5055443;28;20573;-75
2022/11/15 07:00:55;;;;;;;26.23;19.10;;;3.70;99.90;;;;;;5055284;28;20210;-75
2022/11/15 07:03:21;;;;;;;28.83;21.00;;;3.80;99.90;;;;;;5055379;28;20201;-75
2022/11/15 07:05:53;;;;;;;31.90;20.50;;;3.80;99.90;;;;;;5055469;28;20197;-75
2022/11/15 07:08:20;;;;;;;30.97;21.37;;;3.90;99.90;;;;;;5055150;28;20329;-75
2022/11/15 07:10:48;;;;;;;33.27;22.33;;;3.90;99.90;;;;;;5055408;28;20200;-75
2022/11/15 07:13:15;;;;;;;33.03;22.30;;;4.00;99.90;;;;;;5055508;28;20289;-74
2022/11/15 07:15:42;;;;;;;35.07;23.50;;;4.10;99.90;;;;;;5056284;28;20333;-75
2022/11/15 07:18:08;;;;;;;39.20;26.10;;;4.20;99.90;;;;;;5055723;28;20200;-75
2022/11/15 07:20:35;;;;;;;34.63;25.23;;;4.30;99.90;;;;;;5055359;28;20258;-75
2022/11/15 07:23:03;;;;;;;34.93;26.77;;;4.40;99.90;;;;;;5054603;28;20683;-75
2022/11/15 07:25:29;;;;;;;33.43;26.27;;;4.50;99.90;;;;;;5054426;28;20203;-75
2022/11/15 07:27:58;;;;;;;34.23;25.13;;;4.70;99.90;;;;;;5054021;28;20295;-75
2022/11/15 07:30:26;;;;;;;37.03;29.03;;;4.80;99.90;;;;;;5054052;28;20201;-75
2022/11/15 07:32:54;;;;;;;32.83;24.33;;;4.90;99.90;;;;;;5054167;28;20285;-74
2022/11/15 07:35:21;;;;;;;25.93;21.03;;;5.00;99.90;;;;;;5053914;28;20205;-75
2022/11/15 07:37:54;;;;;;;22.00;16.57;;;5.20;99.90;;;;;;5053773;28;20197;-75
2022/11/15 07:40:21;;;;;;;22.90;17.10;;;5.30;99.90;;;;;;5053949;28;20312;-74
2022/11/15 07:42:54;;;;;;;22.33;15.83;;;5.40;99.90;;;;;;5053536;28;20597;-75
2022/11/15 07:45:25;;;;;;;20.17;15.03;;;5.60;99.90;;;;;;5053267;28;20200;-74
2022/11/15 07:47:52;;;;;;;21.20;15.10;;;5.80;99.90;;;;;;5053847;28;20206;-75
2022/11/15 07:50:19;;;;;;;20.33;14.27;;;5.90;99.90;;;;;;5053768;28;20263;-74
2022/11/15 07:52:47;;;;;;;19.60;14.33;;;6.10;99.90;;;;;;5053265;28;20205;-75
2022/11/15 07:55:13;;;;;;;18.33;13.97;;;6.10;99.90;;;;;;5053630;28;20198;-75
2022/11/15 07:57:40;;;;;;;16.60;13.33;;;6.40;99.90;;;;;;5053460;28;20206;-75
2022/11/15 08:00:08;;;;;;;17.37;13.37;;;6.60;99.90;;;;;;5053440;28;20222;-75
2022/11/15 08:02:36;;;;;;;15.57;13.07;;;6.80;99.90;;;;;;5053514;28;20556;-75
2022/11/15 08:05:03;;;;;;;17.00;11.93;;;7.00;99.90;;;;;;5052939;28;20668;-75
2022/11/15 08:07:31;;;;;;;15.37;12.57;;;7.00;99.90;;;;;;5052852;28;20255;-75
2022/11/15 08:09:58;;;;;;;15.30;12.20;;;7.10;99.90;;;;;;5053443;28;20231;-75
2022/11/15 08:12:25;;;;;;;22.77;14.23;;;7.20;99.90;;;;;;5053108;28;20202;-75
2022/11/15 08:14:52;;;;;;;14.20;11.80;;;7.30;99.90;;;;;;5053082;28;20205;-73
2022/11/15 08:17:18;;;;;;;17.57;10.17;;;7.60;99.90;;;;;;5052916;28;20204;-75
2022/11/15 08:19:46;;;;;;;9.87;8.87;;;7.80;99.90;;;;;;5052769;28;20225;-75
2022/11/15 08:22:13;;;;;;;10.63;8.53;;;8.10;99.90;;;;;;5052801;28;20228;-75
2022/11/15 08:24:40;;;;;;;10.40;7.57;;;8.30;99.90;;;;;;5052823;28;20224;-75
2022/11/15 08:27:14;;;;;;;10.27;8.27;;;8.60;99.90;;;;;;5052948;28;20248;-75
2022/11/15 08:29:41;;;;;;;9.00;8.10;;;8.80;99.90;;;;;;5053107;28;20648;-75
2022/11/15 08:32:08;;;;;;;10.57;8.43;;;9.00;99.90;;;;;;5052788;28;20197;-75
2022/11/15 08:34:34;;;;;;;9.30;8.10;;;9.20;99.90;;;;;;5052488;28;20202;-75
2022/11/15 08:37:02;;;;;;;7.70;7.00;;;9.40;99.90;;;;;;5052346;28;20232;-76
2022/11/15 08:39:29;;;;;;;8.10;7.00;;;9.60;99.90;;;;;;5052620;28;20225;-75
2022/11/15 08:41:56;;;;;;;8.90;6.97;;;9.70;99.90;;;;;;5052677;28;20205;-75
2022/11/15 08:44:23;;;;;;;7.17;6.17;;;9.90;99.90;;;;;;5052412;28;20202;-75
2022/11/15 08:46:50;;;;;;;7.23;6.07;;;10.10;99.90;;;;;;5052498;28;20309;-75
2022/11/15 08:49:17;;;;;;;6.87;6.17;;;10.30;99.90;;;;;;5052701;28;20198;-75
2022/11/15 08:51:44;;;;;;;9.67;6.10;;;10.40;99.90;;;;;;5052651;28;20197;-75
2022/11/15 08:54:12;;;;;;;8.20;5.70;;;10.60;99.90;;;;;;5052665;28;20604;-75
2022/11/15 08:56:38;;;;;;;6.13;5.53;;;10.80;99.90;;;;;;5052465;28;20722;-75
2022/11/15 08:59:05;;;;;;;7.20;5.80;;;11.00;99.90;;;;;;5055839;28;20761;-75
2022/11/15 09:01:32;;;;;;;6.43;5.80;;;11.10;99.90;;;;;;5056593;28;20200;-76
2022/11/15 09:03:58;;;;;;;6.47;5.87;;;11.30;99.90;;;;;;5056449;28;20197;-76
2022/11/15 09:06:25;;;;;;;6.70;6.00;;;11.50;99.90;;;;;;5056087;28;20197;-76
2022/11/15 09:08:52;;;;;;;10.43;6.88;;;11.70;99.90;;;;;;5056513;28;20209;-75
2022/11/15 09:11:21;;;;;;;7.90;5.95;;;11.80;99.90;;;;;;5056184;28;20557;-76
2022/11/15 09:13:48;;;;;;;6.50;5.40;;;11.90;99.90;;;;;;5056286;28;20225;-76
2022/11/15 09:16:15;;;;;;;6.25;5.65;;;12.00;99.90;;;;;;5056205;28;20639;-75
2022/11/15 09:18:42;;;;;;;6.25;5.43;;;12.20;99.90;;;;;;5056214;28;20198;-76
2022/11/15 09:21:09;;;;;;;5.50;4.78;;;12.40;99.90;;;;;;5056257;28;20194;-76
2022/11/15 09:23:35;;;;;;;5.50;4.90;;;12.50;99.90;;;;;;5056362;28;20236;-75
2022/11/15 09:26:04;;;;;;;5.75;5.15;;;12.80;99.90;;;;;;5056133;28;20247;-76
2022/11/15 09:28:32;;;;;;;5.47;4.68;;;12.90;99.90;;;;;;5055976;28;20645;-75
2022/11/15 09:30:59;;;;;;;6.47;4.88;;;13.30;99.90;;;;;;5056482;28;20217;-75
2022/11/15 09:33:27;;;;;;;7.80;5.50;;;13.70;99.90;;;;;;5055881;28;20653;-76
2022/11/15 09:35:54;;;;;;;7.43;5.50;;;13.80;99.90;;;;;;5055955;28;20197;-75
2022/11/15 09:38:21;;;;;;;5.65;4.78;;;14.20;99.90;;;;;;5055935;28;20204;-75
2022/11/15 09:40:52;;;;;;;6.03;5.13;;;14.50;99.90;;;;;;5055640;28;20234;-76
2022/11/15 09:43:38;;;;;;;7.43;5.10;;;14.80;99.90;;;;;;5055679;28;20600;-76
2022/11/15 09:46:12;;;;;;;5.22;4.68;;;15.20;99.90;;;;;;5055846;28;20205;-76
2022/11/15 09:48:53;;;;;;;5.55;4.72;;;15.60;99.90;;;;;;5055883;28;20194;-75
2022/11/15 09:51:27;;;;;;;5.35;4.70;;;15.80;99.90;;;;;;5055673;28;20223;-76
2022/11/15 09:54:05;;;;;;;11.55;10.55;;;16.10;99.90;;;;;;5055625;28;20205;-76
2022/11/15 09:56:36;;;;;;;5.30;4.80;;;16.80;99.90;;;;;;5055755;28;20283;-76
2022/11/15 09:59:20;;;;;;;5.10;4.60;;;17.20;99.90;;;;;;5055294;28;20197;-75
2022/11/15 10:01:57;;;;;;;5.20;4.70;;;17.50;99.90;;;;;;5055709;28;20255;-75
2022/11/15 10:04:24;;;;;;;5.88;4.47;;;18.00;99.90;;;;;;5055257;28;20526;-76
2022/11/15 10:06:56;;;;;;;4.65;3.90;;;18.50;99.90;;;;;;5055270;28;20233;-75
2022/11/15 10:09:27;;;;;;;4.13;3.83;;;19.10;99.90;;;;;;5054836;28;20665;-75
2022/11/15 10:11:54;;;;;;;4.75;4.22;;;20.10;99.90;;;;;;5055261;28;20255;-75
2022/11/15 10:14:26;;;;;;;7.78;4.35;;;21.40;98.50;;;;;;5055146;28;20206;-75
2022/11/15 10:17:42;;;;;;;4.35;3.92;;;22.10;96.40;;;;;;5055384;28;20607;-75
2022/11/15 10:20:16;;;;;;;4.82;3.75;;;23.20;93.60;;;;;;5007724;28;20689;-75
2022/11/15 10:22:48;;;;;;;7.00;4.32;;;23.50;90.40;;;;;;5055045;28;20255;-74
2022/11/15 10:25:23;;;;;;;4.75;3.75;;;23.80;87.00;;;;;;5055255;28;20236;-76
2022/11/15 10:27:59;;;;;;;4.20;3.90;;;24.20;83.40;;;;;;5055298;28;20197;-76
2022/11/15 10:30:34;;;;;;;4.10;3.80;;;24.90;81.60;;;;;;5054967;28;20595;-75
2022/11/15 10:33:18;;;;;;;4.40;4.00;;;25.30;78.50;;;;;;5054843;28;20656;-77
2022/11/15 10:35:44;;;;;;;4.90;3.80;;;25.90;73.70;;;;;;5055070;28;20201;-76
2022/11/15 10:38:12;;;;;;;4.10;3.60;;;26.00;70.00;;;;;;5054967;28;20251;-77
2022/11/15 10:40:40;;;;;;;3.80;3.50;;;26.20;66.70;;;;;;5054884;28;20224;-76
2022/11/15 10:43:16;;;;;;;3.30;3.00;;;26.40;64.50;;;;;;5054614;28;20655;-76
2022/11/15 10:45:45;;;;;;;3.17;2.78;;;26.70;58.70;;;;;;5054710;28;20197;-76
2022/11/15 10:48:26;;;;;;;3.35;2.67;;;26.60;58.30;;;;;;5055053;28;20205;-76
2022/11/15 10:50:54;;;;;;;3.25;2.95;;;24.40;54.50;;;;;;5054836;28;20209;-75
2022/11/15 10:53:30;;;;;;;2.90;2.40;;;25.00;56.20;;;;;;5055030;28;20206;-76
2022/11/15 10:56:02;;;;;;;3.75;2.78;;;24.40;54.50;;;;;;5054629;28;20721;-76
2022/11/15 10:58:35;;;;;;;4.07;2.55;;;24.50;55.00;;;;;;5054537;28;20676;-76
2022/11/15 11:01:18;;;;;;;4.10;3.00;;;25.10;53.80;;;;;;5054389;28;20692;-75
2022/11/15 11:03:46;;;;;;;2.78;2.55;;;24.80;52.00;;;;;;5054638;28;20252;-75
2022/11/15 11:06:14;;;;;;;3.30;3.00;;;25.20;53.30;;;;;;5054248;28;20646;-74
2022/11/15 11:08:53;;;;;;;4.32;2.83;;;24.40;54.10;;;;;;5054108;28;20225;-75
2022/11/15 11:11:20;;;;;;;3.10;2.80;;;25.30;56.30;;;;;;5054504;28;20201;-75
2022/11/15 11:13:47;;;;;;;4.93;2.75;;;24.80;53.60;;;;;;5054323;28;20608;-74
2022/11/15 11:16:35;;;;;;;4.00;2.67;;;25.60;53.90;;;;;;5054254;28;20201;-74
2022/11/15 11:19:14;;;;;;;4.20;2.78;;;25.10;52.20;;;;;;5054103;28;20285;-76
2022/11/15 11:21:50;;;;;;;3.22;2.60;;;23.20;53.50;;;;;;5053389;28;20205;-76
2022/11/15 11:24:25;;;;;;;4.40;3.13;;;21.60;55.20;;;;;;5054029;28;20288;-76
2022/11/15 11:27:06;;;;;;;3.05;2.63;;;20.60;56.60;;;;;;5054145;28;20208;-75
2022/11/15 11:29:46;;;;;;;3.58;2.90;;;19.10;57.40;;;;;;5053951;28;20201;-75
2022/11/15 11:32:29;;;;;;;11.55;3.35;;;18.70;59.60;;;;;;5054162;28;20201;-75
2022/11/15 11:35:07;;;;;;;4.28;3.10;;;17.90;63.00;;;;;;5054110;28;20197;-75
2022/11/15 11:37:40;;;;;;;4.28;3.00;;;17.80;63.80;;;;;;5054113;28;20291;-75
2022/11/15 11:40:20;;;;;;;6.03;3.40;;;17.50;64.90;;;;;;5053668;28;20221;-75
2022/11/15 11:42:58;;;;;;;5.55;3.35;;;17.50;67.30;;;;;;5053732;28;20193;-75
2022/11/15 11:45:53;;;;;;;3.53;3.03;;;17.30;69.60;;;;;;5053606;28;20201;-75
2022/11/15 11:48:35;;;;;;;4.30;2.97;;;17.20;70.80;;;;;;5053364;28;20201;-75
2022/11/15 11:51:06;;;;;;;4.85;3.03;;;17.00;70.60;;;;;;5053559;28;20251;-76
2022/11/15 11:53:40;;;;;;;5.45;3.00;;;16.80;73.00;;;;;;5053480;28;20205;-76
2022/11/15 11:56:18;;;;;;;6.43;2.95;;;16.70;73.10;;;;;;5053437;28;20201;-76
2022/11/15 11:58:48;;;;;;;4.38;2.70;;;16.60;72.70;;;;;;5052961;28;20193;-76
2022/11/15 12:01:18;;;;;;;4.22;2.80;;;16.60;72.10;;;;;;5053245;28;20221;-76
2022/11/15 12:03:51;;;;;;;2.95;2.35;;;16.50;74.00;;;;;;5053292;28;20244;-74
2022/11/15 12:06:31;;;;;;;3.33;2.65;;;16.50;73.00;;;;;;5053190;28;20205;-75
2022/11/15 12:09:03;;;;;;;2.70;2.28;;;16.40;73.50;;;;;;5053004;28;20335;-75
2022/11/15 12:11:36;;;;;;;2.85;2.10;;;16.40;74.30;;;;;;5053033;28;20560;-76
2022/11/15 12:14:24;;;;;;;3.70;2.10;;;16.40;72.40;;;;;;5053176;28;20201;-76
2022/11/15 12:16:50;;;;;;;3.60;2.15;;;16.40;71.60;;;;;;5053084;28;20202;-75
2022/11/15 12:19:18;;;;;;;4.05;2.10;;;16.40;72.50;;;;;;5052894;28;20201;-75
2022/11/15 12:21:49;;;;;;;2.60;2.08;;;16.30;71.90;;;;;;5052510;28;20221;-75
2022/11/15 12:24:21;;;;;;;6.28;2.40;;;16.40;71.20;;;;;;5052827;28;20653;-76
2022/11/15 12:26:53;;;;;;;3.97;2.40;;;16.30;71.30;;;;;;5052898;28;20201;-76
2022/11/15 12:29:26;;;;;;;7.18;2.28;;;16.30;71.40;;;;;;5052941;28;20205;-75
2022/11/15 12:31:58;;;;;;;2.50;2.05;;;16.00;71.30;;;;;;5052797;28;20209;-76
2022/11/15 12:34:45;;;;;;;3.60;2.50;;;16.10;71.60;;;;;;5052892;28;20666;-76
2022/11/15 12:37:51;;;;;;;2.88;2.40;;;16.00;72.10;;;;;;5052870;28;20244;-75
2022/11/15 12:40:31;;;;;;;3.67;2.38;;;15.90;72.00;;;;;;5010736;28;20230;-76
2022/11/15 12:43:04;;;;;;;3.63;2.25;;;15.90;72.90;;;;;;5011086;28;20210;-75
2022/11/15 12:45:33;;;;;;;3.97;2.60;;;16.00;72.70;;;;;;5036623;28;20596;-75
2022/11/15 12:48:57;;;;;;;3.70;1.98;;;15.80;73.90;;;;;;5052466;28;20549;-76
2022/11/15 12:52:04;;;;;;;3.05;2.35;;;16.00;73.20;;;;;;5050912;28;20288;-76
2022/11/15 12:55:07;;;;;;;3.85;2.47;;;16.40;73.60;;;;;;5052616;28;20220;-76
2022/11/15 12:57:40;;;;;;;3.20;2.47;;;16.50;73.40;;;;;;5052488;28;20652;-74
2022/11/15 13:00:44;;;;;;;4.60;2.33;;;16.50;73.80;;;;;;5052509;28;20249;-76
2022/11/15 13:03:25;;;;;;;4.95;2.70;;;16.50;73.60;;;;;;5052338;28;20201;-76
2022/11/15 13:06:07;;;;;;;2.45;2.25;;;16.80;72.90;;;;;;5052539;28;20607;-77
2022/11/15 13:08:47;;;;;;;8.93;3.20;;;18.30;73.00;;;;;;5052474;28;20229;-77
2022/11/15 13:11:46;;;;;;;15.25;3.75;;;19.50;68.80;;;;;;5052431;28;20198;-77
2022/11/15 13:14:49;;;;;;;15.98;3.92;;;20.40;67.90;;;;;;5051836;28;20684;-77